Time;durP1;ratioP1;P1;durP2;ratioP2;P2;SDS_P1;SDS_P2;PMS_P1;PMS_P2;Temp;Humidity;BMP_temperature;BMP_pressure;BME280_temperature;BME280_humidity;BME280_pressure;Samples;Min_cycle;Max_cycle;Signal;HPM_P1;HPM_P2
2024/03/05 00:02:22;;;;;;;;;3.00;3.00;;;;;;;;4925704;28;45402;-68
2024/03/05 00:04:48;;;;;;;;;1.00;1.00;;;;;;;;4921745;28;45488;-68
2024/03/05 00:07:15;;;;;;;;;3.00;2.00;;;;;;;;4917308;28;47270;-68
2024/03/05 00:09:40;;;;;;;;;1.00;1.00;;;;;;;;4934181;28;45275;-68
2024/03/05 00:12:06;;;;;;;;;3.00;2.00;;;;;;;;4937724;28;45692;-68
2024/03/05 00:14:31;;;;;;;;;0.00;0.00;;;;;;;;4934081;28;45573;-68
2024/03/05 00:16:56;;;;;;;;;1.00;1.00;;;;;;;;4933857;28;45585;-68
2024/03/05 00:19:24;;;;;;;;;4.00;2.00;;;;;;;;4928001;28;45387;-68
2024/03/05 00:21:49;;;;;;;;;2.25;2.00;;;;;;;;4920952;28;45462;-68
2024/03/05 00:24:15;;;;;;;;;1.67;1.00;;;;;;;;4935805;28;45729;-68
2024/03/05 00:26:40;;;;;;;;;2.00;1.33;;;;;;;;4930106;28;46452;-68
2024/03/05 00:29:06;;;;;;;;;1.67;1.67;;;;;;;;4924791;28;45466;-68
2024/03/05 00:31:32;;;;;;;;;1.25;0.00;;;;;;;;4938580;28;45487;-68
2024/03/05 00:33:57;;;;;;;;;1.00;1.00;;;;;;;;4936269;28;45363;-68
2024/03/05 00:36:25;;;;;;;;;3.67;2.00;;;;;;;;4912476;28;46384;-68
2024/03/05 00:38:50;;;;;;;;;1.00;1.00;;;;;;;;4935614;28;45349;-68
2024/03/05 00:41:17;;;;;;;;;2.00;2.00;;;;;;;;4928998;28;45386;-68
2024/03/05 00:43:42;;;;;;;;;1.75;1.00;;;;;;;;4917032;28;45590;-68
2024/03/05 00:46:07;;;;;;;;;2.00;1.00;;;;;;;;4933857;28;46142;-68
2024/03/05 00:48:33;;;;;;;;;3.00;2.00;;;;;;;;4934446;28;45453;-68
2024/03/05 00:50:59;;;;;;;;;1.00;1.00;;;;;;;;4928271;28;45373;-68
2024/03/05 00:53:24;;;;;;;;;1.75;0.00;;;;;;;;4934343;28;45459;-68
2024/03/05 00:55:49;;;;;;;;;1.00;1.00;;;;;;;;4935889;28;46454;-68
2024/03/05 00:58:14;;;;;;;;;2.00;1.00;;;;;;;;4926562;28;45359;-68
2024/03/05 01:00:40;;;;;;;;;0.00;0.00;;;;;;;;4933792;28;45300;-68
2024/03/05 01:03:05;;;;;;;;;0.00;0.00;;;;;;;;4926340;28;45605;-68
2024/03/05 01:05:30;;;;;;;;;1.00;1.00;;;;;;;;4938046;28;45499;-68
2024/03/05 01:07:55;;;;;;;;;1.00;1.00;;;;;;;;4933967;28;45517;-68
2024/03/05 01:10:20;;;;;;;;;1.00;1.00;;;;;;;;4920531;28;45644;-68
2024/03/05 01:12:46;;;;;;;;;1.00;1.00;;;;;;;;4934676;28;45458;-68
2024/03/05 01:15:12;;;;;;;;;1.00;1.00;;;;;;;;4937756;28;46202;-68
2024/03/05 01:17:39;;;;;;;;;2.00;1.00;;;;;;;;4924274;28;45508;-68
2024/03/05 01:20:06;;;;;;;;;0.25;0.25;;;;;;;;4927914;28;45267;-68
2024/03/05 01:22:32;;;;;;;;;3.00;1.00;;;;;;;;4922228;28;45474;-68
2024/03/05 01:24:57;;;;;;;;;1.00;1.00;;;;;;;;4940048;28;47052;-68
2024/03/05 01:27:24;;;;;;;;;3.00;1.00;;;;;;;;4928172;28;45501;-68
2024/03/05 01:29:50;;;;;;;;;1.00;1.00;;;;;;;;4931986;28;45542;-68
2024/03/05 01:32:15;;;;;;;;;1.25;0.25;;;;;;;;4937965;28;45407;-68
2024/03/05 01:34:43;;;;;;;;;0.67;0.67;;;;;;;;4940243;28;45465;-68
2024/03/05 01:37:08;;;;;;;;;1.00;1.00;;;;;;;;4932183;28;45589;-68
2024/03/05 01:39:33;;;;;;;;;1.00;1.00;;;;;;;;4940402;28;45309;-68
2024/03/05 01:41:58;;;;;;;;;0.00;0.00;;;;;;;;4924743;28;45414;-68
2024/03/05 01:44:24;;;;;;;;;1.00;1.00;;;;;;;;4937702;28;46675;-68
2024/03/05 01:46:53;;;;;;;;;1.25;1.25;;;;;;;;4930589;28;45552;-68
2024/03/05 01:49:19;;;;;;;;;2.00;2.00;;;;;;;;4937881;28;45387;-68
2024/03/05 01:51:44;;;;;;;;;1.00;1.00;;;;;;;;4923775;28;45639;-68
2024/03/05 01:54:10;;;;;;;;;0.25;0.25;;;;;;;;4937463;28;45405;-68
2024/03/05 01:56:36;;;;;;;;;1.00;1.00;;;;;;;;4932139;28;45336;-68
2024/03/05 01:59:01;;;;;;;;;1.00;1.00;;;;;;;;4913003;28;45371;-68
2024/03/05 02:01:27;;;;;;;;;1.25;1.00;;;;;;;;4928593;28;45555;-68
2024/03/05 02:03:53;;;;;;;;;1.50;1.00;;;;;;;;4903433;28;47467;-68
2024/03/05 02:06:21;;;;;;;;;1.50;1.00;;;;;;;;4908015;28;46015;-68
2024/03/05 02:08:46;;;;;;;;;1.25;1.25;;;;;;;;4930718;28;45328;-68
2024/03/05 02:11:12;;;;;;;;;1.00;1.00;;;;;;;;4934171;28;45370;-68
2024/03/05 02:13:38;;;;;;;;;1.00;1.00;;;;;;;;4929710;28;46291;-68
2024/03/05 02:16:04;;;;;;;;;1.00;1.00;;;;;;;;4934944;28;45480;-68
2024/03/05 02:18:29;;;;;;;;;3.00;1.00;;;;;;;;4930429;28;45557;-68
2024/03/05 02:20:58;;;;;;;;;0.33;0.33;;;;;;;;4924809;28;45379;-68
2024/03/05 02:23:24;;;;;;;;;2.75;1.00;;;;;;;;4924233;28;45307;-68
2024/03/05 02:25:49;;;;;;;;;1.00;1.00;;;;;;;;4936885;28;45403;-68
2024/03/05 02:28:15;;;;;;;;;2.00;1.00;;;;;;;;4930596;28;45245;-68
2024/03/05 02:30:41;;;;;;;;;2.50;1.50;;;;;;;;4931748;28;45572;-68
2024/03/05 02:33:06;;;;;;;;;3.50;1.00;;;;;;;;4942900;28;45493;-68
2024/03/05 02:35:31;;;;;;;;;1.50;1.50;;;;;;;;4940935;28;45378;-68
2024/03/05 02:37:56;;;;;;;;;1.67;1.67;;;;;;;;4942863;28;45437;-68
2024/03/05 02:40:22;;;;;;;;;1.50;1.50;;;;;;;;4932190;28;45469;-68
2024/03/05 02:42:47;;;;;;;;;2.00;2.00;;;;;;;;4932205;28;45586;-67
2024/03/05 02:45:12;;;;;;;;;1.00;1.00;;;;;;;;4937167;28;45597;-68
2024/03/05 02:47:41;;;;;;;;;2.00;1.00;;;;;;;;4940332;28;45483;-68
2024/03/05 02:50:08;;;;;;;;;2.00;2.00;;;;;;;;4932678;28;45558;-68
2024/03/05 02:52:34;;;;;;;;;2.00;2.00;;;;;;;;4915459;28;48206;-68
2024/03/05 02:55:00;;;;;;;;;2.75;2.75;;;;;;;;4936313;28;45509;-68
2024/03/05 02:57:25;;;;;;;;;2.33;2.00;;;;;;;;4933554;28;45304;-68
2024/03/05 02:59:51;;;;;;;;;2.00;1.00;;;;;;;;4935162;28;45327;-68
2024/03/05 03:02:16;;;;;;;;;2.00;2.00;;;;;;;;4927430;28;45513;-67
2024/03/05 03:04:42;;;;;;;;;2.00;2.00;;;;;;;;4935672;28;45289;-68
2024/03/05 03:07:07;;;;;;;;;2.33;1.00;;;;;;;;4922130;28;45543;-68
2024/03/05 03:09:32;;;;;;;;;2.00;2.00;;;;;;;;4934161;28;46978;-68
2024/03/05 03:11:58;;;;;;;;;2.67;2.67;;;;;;;;4932384;28;45438;-68
2024/03/05 03:14:23;;;;;;;;;1.00;1.00;;;;;;;;4936052;28;45382;-67
2024/03/05 03:16:49;;;;;;;;;2.00;2.00;;;;;;;;4936917;28;45372;-68
2024/03/05 03:19:15;;;;;;;;;3.25;2.00;;;;;;;;4930694;28;45507;-68
2024/03/05 03:21:40;;;;;;;;;3.00;1.00;;;;;;;;4921982;28;45384;-68
2024/03/05 03:24:06;;;;;;;;;2.25;1.00;;;;;;;;4938286;28;45306;-68
2024/03/05 03:26:31;;;;;;;;;0.25;0.25;;;;;;;;4941829;28;45303;-68
2024/03/05 03:28:57;;;;;;;;;8.00;4.00;;;;;;;;4913247;28;45360;-67
2024/03/05 03:31:22;;;;;;;;;1.00;1.00;;;;;;;;4933751;28;46162;-67
2024/03/05 03:33:47;;;;;;;;;1.00;1.00;;;;;;;;4941118;28;45254;-68
2024/03/05 03:36:25;;;;;;;;;2.00;2.00;;;;;;;;4941966;28;45297;-68
2024/03/05 03:38:51;;;;;;;;;2.00;2.00;;;;;;;;4941069;28;45336;-67
2024/03/05 03:41:16;;;;;;;;;4.00;2.25;;;;;;;;4906720;28;47295;-68
2024/03/05 03:43:42;;;;;;;;;1.50;1.50;;;;;;;;4935568;28;45407;-68
2024/03/05 03:46:08;;;;;;;;;2.50;2.00;;;;;;;;4939497;28;45366;-68
2024/03/05 03:48:35;;;;;;;;;2.50;1.50;;;;;;;;4936491;28;45549;-68
2024/03/05 03:51:00;;;;;;;;;2.00;2.00;;;;;;;;4928644;28;45474;-68
2024/03/05 03:53:26;;;;;;;;;3.00;3.00;;;;;;;;4935905;28;45451;-68
2024/03/05 03:55:51;;;;;;;;;2.00;2.00;;;;;;;;4921945;28;45397;-67
2024/03/05 03:58:17;;;;;;;;;2.75;2.00;;;;;;;;4929044;28;45438;-68
2024/03/05 04:00:44;;;;;;;;;4.25;2.00;;;;;;;;4929209;28;46357;-67
2024/03/05 04:03:10;;;;;;;;;3.00;3.00;;;;;;;;4935163;28;45328;-68
2024/03/05 04:05:35;;;;;;;;;2.00;2.00;;;;;;;;4939025;28;45431;-68
2024/03/05 04:08:00;;;;;;;;;5.00;2.00;;;;;;;;4936097;28;45375;-68
2024/03/05 04:10:26;;;;;;;;;5.00;2.67;;;;;;;;4930527;28;45523;-67
2024/03/05 04:12:52;;;;;;;;;2.50;1.50;;;;;;;;4935821;28;45631;-67
2024/03/05 04:15:18;;;;;;;;;2.75;2.75;;;;;;;;4938812;28;45478;-68
2024/03/05 04:17:44;;;;;;;;;2.00;1.00;;;;;;;;4916926;28;45764;-68
2024/03/05 04:20:09;;;;;;;;;1.50;1.50;;;;;;;;4925344;28;45405;-68
2024/03/05 04:22:37;;;;;;;;;3.00;1.50;;;;;;;;4925182;28;45477;-68
2024/03/05 04:25:02;;;;;;;;;4.75;3.00;;;;;;;;4941043;28;45410;-67
2024/03/05 04:27:30;;;;;;;;;1.75;1.75;;;;;;;;4936203;28;45600;-68
2024/03/05 04:29:57;;;;;;;;;2.00;1.75;;;;;;;;4930206;28;45460;-68
2024/03/05 04:32:26;;;;;;;;;3.75;2.25;;;;;;;;4938811;28;45379;-68
2024/03/05 04:35:00;;;;;;;;;3.50;2.75;;;;;;;;4941047;28;45322;-68
2024/03/05 04:37:26;;;;;;;;;5.00;2.00;;;;;;;;4940089;28;45282;-68
2024/03/05 04:39:51;;;;;;;;;3.50;2.00;;;;;;;;4938148;28;46846;-68
2024/03/05 04:42:16;;;;;;;;;3.00;3.00;;;;;;;;4927814;28;45381;-68
2024/03/05 04:44:43;;;;;;;;;5.00;2.33;;;;;;;;4918000;28;45509;-68
2024/03/05 04:47:09;;;;;;;;;2.00;2.00;;;;;;;;4936899;28;45721;-68
2024/03/05 04:49:36;;;;;;;;;3.75;3.75;;;;;;;;4938142;28;46892;-68
2024/03/05 04:52:02;;;;;;;;;3.50;3.25;;;;;;;;4931445;28;45576;-68
2024/03/05 04:54:29;;;;;;;;;2.75;2.50;;;;;;;;4931436;28;45580;-68
2024/03/05 04:56:54;;;;;;;;;3.00;2.00;;;;;;;;4934390;28;45397;-68
2024/03/05 04:59:19;;;;;;;;;2.00;2.00;;;;;;;;4925973;28;46224;-68
2024/03/05 05:01:45;;;;;;;;;3.00;3.00;;;;;;;;4922647;28;45502;-68
2024/03/05 05:04:10;;;;;;;;;2.00;2.00;;;;;;;;4932262;28;45731;-68
2024/03/05 05:06:35;;;;;;;;;3.00;2.00;;;;;;;;4936715;28;46272;-68
2024/03/05 05:09:00;;;;;;;;;5.00;4.00;;;;;;;;4936651;28;45454;-68
2024/03/05 05:11:25;;;;;;;;;2.00;2.00;;;;;;;;4929532;28;45572;-68
2024/03/05 05:13:51;;;;;;;;;2.00;2.00;;;;;;;;4936512;28;45438;-68
2024/03/05 05:16:16;;;;;;;;;2.67;2.67;;;;;;;;4924487;28;45280;-68
2024/03/05 05:18:41;;;;;;;;;4.00;2.67;;;;;;;;4928637;28;46260;-68
2024/03/05 05:21:09;;;;;;;;;4.00;2.00;;;;;;;;4920186;28;45315;-68
2024/03/05 05:23:35;;;;;;;;;2.75;2.75;;;;;;;;4932938;28;45288;-68
2024/03/05 05:26:00;;;;;;;;;5.00;4.50;;;;;;;;4927981;28;45411;-68
2024/03/05 05:28:25;;;;;;;;;3.00;3.00;;;;;;;;4926231;28;45578;-68
2024/03/05 05:30:50;;;;;;;;;3.00;3.00;;;;;;;;4936752;28;45434;-68
2024/03/05 05:33:15;;;;;;;;;3.00;3.00;;;;;;;;4935746;28;45232;-68
2024/03/05 05:35:41;;;;;;;;;5.00;5.00;;;;;;;;4930136;28;45313;-68
2024/03/05 05:38:08;;;;;;;;;2.67;2.67;;;;;;;;4939268;28;46530;-68
2024/03/05 05:40:34;;;;;;;;;2.00;2.00;;;;;;;;4932709;28;45395;-68
2024/03/05 05:42:59;;;;;;;;;3.33;3.00;;;;;;;;4931261;28;45563;-68
2024/03/05 05:45:24;;;;;;;;;3.00;3.00;;;;;;;;4929994;28;45526;-68
2024/03/05 05:47:51;;;;;;;;;4.33;3.33;;;;;;;;4937828;28;45395;-68
2024/03/05 05:50:21;;;;;;;;;3.00;3.00;;;;;;;;4930460;28;45308;-68
2024/03/05 05:52:48;;;;;;;;;3.50;3.00;;;;;;;;4931731;28;45409;-68
2024/03/05 05:55:15;;;;;;;;;5.00;5.00;;;;;;;;4933116;28;45339;-68
2024/03/05 05:57:40;;;;;;;;;4.50;3.00;;;;;;;;4928378;28;45855;-68
2024/03/05 06:00:11;;;;;;;;;5.75;4.00;;;;;;;;4935945;28;45383;-68
2024/03/05 06:02:36;;;;;;;;;4.00;3.75;;;;;;;;4916245;28;45419;-68
2024/03/05 06:05:03;;;;;;;;;5.00;4.00;;;;;;;;4936597;28;45564;-68
2024/03/05 06:07:28;;;;;;;;;2.00;2.00;;;;;;;;4934342;28;46646;-68
2024/03/05 06:09:53;;;;;;;;;3.33;3.00;;;;;;;;4939981;28;45435;-68
2024/03/05 06:12:19;;;;;;;;;4.00;3.67;;;;;;;;4939240;28;45382;-68
2024/03/05 06:14:44;;;;;;;;;2.00;2.00;;;;;;;;4939902;28;45534;-68
2024/03/05 06:17:09;;;;;;;;;3.00;3.00;;;;;;;;4933407;28;47068;-68
2024/03/05 06:19:35;;;;;;;;;3.33;2.00;;;;;;;;4930987;28;45368;-68
2024/03/05 06:22:00;;;;;;;;;0.00;0.00;;;;;;;;4923147;28;45513;-68
2024/03/05 06:24:25;;;;;;;;;4.67;2.67;;;;;;;;4923322;28;45403;-68
2024/03/05 06:26:50;;;;;;;;;3.00;3.00;;;;;;;;4937551;28;46528;-68
2024/03/05 06:29:16;;;;;;;;;4.00;3.67;;;;;;;;4930149;28;45351;-68
2024/03/05 06:31:41;;;;;;;;;4.67;3.67;;;;;;;;4924264;28;45429;-68
2024/03/05 06:34:09;;;;;;;;;2.50;2.50;;;;;;;;4927998;28;45646;-68
2024/03/05 06:36:34;;;;;;;;;4.25;2.75;;;;;;;;4929229;28;46636;-68
2024/03/05 06:39:18;;;;;;;;;3.67;2.67;;;;;;;;4935232;28;46940;-68
2024/03/05 06:41:46;;;;;;;;;2.75;2.25;;;;;;;;4924621;28;45529;-68
2024/03/05 06:44:13;;;;;;;;;3.75;3.00;;;;;;;;4930674;28;45397;-68
2024/03/05 06:46:42;;;;;;;;;3.00;3.00;;;;;;;;4928356;28;46174;-68
2024/03/05 06:49:08;;;;;;;;;3.75;3.75;;;;;;;;4935767;28;45355;-68
2024/03/05 06:51:41;;;;;;;;;3.00;3.00;;;;;;;;4925812;28;45330;-68
2024/03/05 06:56:50;;;;;;;;;2.00;2.00;;;;;;;;4920003;28;45565;-70
2024/03/05 06:59:15;;;;;;;;;3.00;3.00;;;;;;;;4923540;28;45928;-71
2024/03/05 07:01:40;;;;;;;;;3.33;3.00;;;;;;;;4922271;28;45448;-70
2024/03/05 07:04:06;;;;;;;;;6.00;3.00;;;;;;;;4906252;28;45566;-70
2024/03/05 07:06:32;;;;;;;;;1.50;1.00;;;;;;;;4936106;28;45515;-70
2024/03/05 07:08:57;;;;;;;;;3.00;3.00;;;;;;;;4936365;28;45268;-70
2024/03/05 07:11:22;;;;;;;;;3.00;2.33;;;;;;;;4936126;28;45444;-70
2024/03/05 07:13:49;;;;;;;;;3.50;3.50;;;;;;;;4906034;28;45447;-69
2024/03/05 07:16:18;;;;;;;;;3.00;2.25;;;;;;;;4922293;28;45430;-68
2024/03/05 07:18:44;;;;;;;;;1.25;1.25;;;;;;;;4914634;28;45466;-68
2024/03/05 07:21:09;;;;;;;;;3.25;3.25;;;;;;;;4907026;28;45400;-68
2024/03/05 07:23:35;;;;;;;;;5.50;3.75;;;;;;;;4927943;28;45569;-68
2024/03/05 07:26:00;;;;;;;;;3.25;3.00;;;;;;;;4909853;28;46353;-68
2024/03/05 07:28:26;;;;;;;;;5.00;3.33;;;;;;;;4923251;28;45892;-68
2024/03/05 07:30:51;;;;;;;;;3.00;3.00;;;;;;;;4922458;28;45456;-68
2024/03/05 07:33:17;;;;;;;;;4.00;2.25;;;;;;;;4933094;28;45315;-68
2024/03/05 07:35:42;;;;;;;;;4.00;2.50;;;;;;;;4920608;28;47361;-68
2024/03/05 07:38:07;;;;;;;;;3.75;2.75;;;;;;;;4916905;28;45311;-68
2024/03/05 07:40:33;;;;;;;;;6.33;4.00;;;;;;;;4928963;28;45288;-68
2024/03/05 07:42:59;;;;;;;;;3.00;3.00;;;;;;;;4933717;28;45310;-68
2024/03/05 07:45:24;;;;;;;;;2.75;2.00;;;;;;;;4929030;28;45323;-68
2024/03/05 07:47:49;;;;;;;;;2.00;2.00;;;;;;;;4935666;28;45378;-68
2024/03/05 07:50:15;;;;;;;;;2.00;2.00;;;;;;;;4932543;28;45318;-67
2024/03/05 07:52:44;;;;;;;;;2.00;2.00;;;;;;;;4920383;28;45376;-68
2024/03/05 07:55:11;;;;;;;;;1.00;1.00;;;;;;;;4921266;28;45645;-68
2024/03/05 07:57:39;;;;;;;;;2.00;2.00;;;;;;;;4922376;28;45439;-68
2024/03/05 08:00:08;;;;;;;;;1.50;1.00;;;;;;;;4921572;28;45239;-68
2024/03/05 08:02:34;;;;;;;;;1.75;1.50;;;;;;;;4904010;28;45677;-68
2024/03/05 08:04:59;;;;;;;;;0.75;0.75;;;;;;;;4920922;28;45347;-69
2024/03/05 08:07:25;;;;;;;;;4.50;2.00;;;;;;;;4921367;28;45526;-68
2024/03/05 08:09:50;;;;;;;;;2.33;2.33;;;;;;;;4920989;28;45621;-68
2024/03/05 08:12:15;;;;;;;;;1.67;1.67;;;;;;;;4917031;28;45605;-68
2024/03/05 08:14:40;;;;;;;;;2.00;1.00;;;;;;;;4912617;28;46622;-68
2024/03/05 08:17:08;;;;;;;;;1.67;0.00;;;;;;;;4921614;28;45497;-68
2024/03/05 08:19:33;;;;;;;;;0.00;0.00;;;;;;;;4922251;28;45520;-68
2024/03/05 08:21:58;;;;;;;;;0.25;0.25;;;;;;;;4926543;28;45412;-68
2024/03/05 08:24:24;;;;;;;;;1.00;1.00;;;;;;;;4921413;28;46481;-68
2024/03/05 08:26:49;;;;;;;;;2.00;1.00;;;;;;;;4900847;28;45657;-68
2024/03/05 08:29:15;;;;;;;;;1.00;1.00;;;;;;;;4919347;28;45896;-68
2024/03/05 08:31:40;;;;;;;;;2.00;1.25;;;;;;;;4918265;28;45464;-68
2024/03/05 08:34:06;;;;;;;;;3.00;1.00;;;;;;;;4917402;28;45859;-68
2024/03/05 08:36:36;;;;;;;;;1.00;1.00;;;;;;;;4918244;28;45543;-68
2024/03/05 08:39:01;;;;;;;;;0.50;0.50;;;;;;;;4903741;28;45718;-68
2024/03/05 08:41:26;;;;;;;;;1.00;1.00;;;;;;;;4926341;28;45409;-68
2024/03/05 08:43:52;;;;;;;;;1.00;1.00;;;;;;;;4920791;28;45665;-68
2024/03/05 08:46:17;;;;;;;;;1.00;1.00;;;;;;;;4920359;28;45359;-68
2024/03/05 08:48:42;;;;;;;;;0.00;0.00;;;;;;;;4917023;28;45558;-68
2024/03/05 08:51:08;;;;;;;;;1.00;0.00;;;;;;;;4918212;28;45697;-68
2024/03/05 08:53:33;;;;;;;;;0.00;0.00;;;;;;;;4918813;28;46210;-68
2024/03/05 08:55:58;;;;;;;;;0.25;0.00;;;;;;;;4920150;28;45732;-68
2024/03/05 08:58:24;;;;;;;;;2.00;0.00;;;;;;;;4919639;28;45660;-68
2024/03/05 09:00:50;;;;;;;;;2.00;0.00;;;;;;;;4919934;28;45822;-68
2024/03/05 09:03:15;;;;;;;;;1.25;0.25;;;;;;;;4916366;28;47087;-68
2024/03/05 09:05:40;;;;;;;;;0.00;0.00;;;;;;;;4919027;28;45545;-68
2024/03/05 09:08:06;;;;;;;;;0.00;0.00;;;;;;;;4922392;28;45342;-68
2024/03/05 09:10:31;;;;;;;;;0.00;0.00;;;;;;;;4926074;28;45403;-68
2024/03/05 09:12:57;;;;;;;;;0.25;0.00;;;;;;;;4926432;28;45738;-68
2024/03/05 09:15:22;;;;;;;;;0.00;0.00;;;;;;;;4921209;28;45708;-68
2024/03/05 09:17:47;;;;;;;;;2.00;1.00;;;;;;;;4924790;28;45544;-68
2024/03/05 09:20:15;;;;;;;;;1.00;0.00;;;;;;;;4925681;28;45420;-68
2024/03/05 09:22:47;;;;;;;;;1.00;0.00;;;;;;;;4923072;28;47085;-68
2024/03/05 09:25:13;;;;;;;;;0.25;0.25;;;;;;;;4925668;28;45508;-68
2024/03/05 09:27:40;;;;;;;;;1.00;0.00;;;;;;;;4932521;28;45479;-68
2024/03/05 09:30:08;;;;;;;;;1.50;0.50;;;;;;;;4919153;28;45575;-68
2024/03/05 09:32:33;;;;;;;;;0.00;0.00;;;;;;;;4919935;28;47413;-68
2024/03/05 09:34:59;;;;;;;;;0.50;0.50;;;;;;;;4928708;28;45443;-68
2024/03/05 09:37:27;;;;;;;;;3.33;0.00;;;;;;;;4919566;28;45594;-68
2024/03/05 09:39:53;;;;;;;;;0.75;0.75;;;;;;;;4919996;28;45541;-68
2024/03/05 09:42:19;;;;;;;;;0.00;0.00;;;;;;;;4925361;28;47400;-68
2024/03/05 09:44:45;;;;;;;;;2.00;1.00;;;;;;;;4923268;28;45288;-68
2024/03/05 09:47:12;;;;;;;;;0.50;0.50;;;;;;;;4925757;28;45496;-68
2024/03/05 09:49:38;;;;;;;;;3.50;1.00;;;;;;;;4922769;28;45468;-68
2024/03/05 09:52:04;;;;;;;;;2.00;1.00;;;;;;;;4922270;28;45631;-68
2024/03/05 09:54:30;;;;;;;;;2.00;1.00;;;;;;;;4919778;28;45328;-68
2024/03/05 09:56:55;;;;;;;;;0.00;0.00;;;;;;;;4925143;28;45461;-68
2024/03/05 09:59:20;;;;;;;;;0.00;0.00;;;;;;;;4931398;28;45590;-68
2024/03/05 10:01:48;;;;;;;;;2.00;1.00;;;;;;;;4931572;28;45593;-68
2024/03/05 10:04:17;;;;;;;;;0.50;0.00;;;;;;;;4929370;28;45733;-68
2024/03/05 10:06:48;;;;;;;;;1.75;0.50;;;;;;;;4924309;28;45272;-68
2024/03/05 10:09:14;;;;;;;;;0.00;0.00;;;;;;;;4906676;28;46520;-68
2024/03/05 10:11:40;;;;;;;;;1.00;1.00;;;;;;;;4923574;28;46175;-69
2024/03/05 10:14:06;;;;;;;;;0.25;0.25;;;;;;;;4928030;28;45469;-69
2024/03/05 10:16:31;;;;;;;;;1.50;1.50;;;;;;;;4924514;28;45466;-68
2024/03/05 10:18:56;;;;;;;;;0.50;0.00;;;;;;;;4922791;28;45473;-69
2024/03/05 10:21:23;;;;;;;;;0.67;0.67;;;;;;;;4920382;28;46763;-66
2024/03/05 10:23:55;;;;;;;;;0.25;0.25;;;;;;;;4918226;28;46068;-69
2024/03/05 10:26:30;;;;;;;;;0.00;0.00;;;;;;;;4922223;28;45395;-69
2024/03/05 10:29:00;;;;;;;;;0.00;0.00;;;;;;;;4921951;28;45370;-69
2024/03/05 10:31:28;;;;;;;;;1.00;0.00;;;;;;;;4934446;28;45326;-68
2024/03/05 10:33:56;;;;;;;;;1.00;1.00;;;;;;;;4922646;28;45429;-68
2024/03/05 10:36:45;;;;;;;;;1.50;0.25;;;;;;;;4932236;28;45923;-68
2024/03/05 10:39:12;;;;;;;;;0.00;0.00;;;;;;;;4921474;28;45364;-68
2024/03/05 10:41:38;;;;;;;;;2.00;0.25;;;;;;;;4923841;28;45551;-68
2024/03/05 10:44:05;;;;;;;;;1.00;0.00;;;;;;;;4901785;28;45891;-68
2024/03/05 10:46:32;;;;;;;;;0.00;0.00;;;;;;;;4918594;28;46263;-69
2024/03/05 10:49:01;;;;;;;;;0.00;0.00;;;;;;;;4928213;28;45663;-68
2024/03/05 10:51:29;;;;;;;;;1.25;0.25;;;;;;;;4929085;28;46309;-69
2024/03/05 10:53:55;;;;;;;;;0.75;0.00;;;;;;;;4941843;28;45417;-68
2024/03/05 10:56:20;;;;;;;;;0.00;0.00;;;;;;;;4941589;28;45345;-68
2024/03/05 11:01:16;;;;;;;;;1.00;0.00;;;;;;;;4920411;28;45751;-69
2024/03/05 11:03:44;;;;;;;;;0.00;0.00;;;;;;;;4921909;28;45565;-69
2024/03/05 11:06:12;;;;;;;;;0.75;0.75;;;;;;;;4923115;28;45537;-69
2024/03/05 11:08:37;;;;;;;;;0.00;0.00;;;;;;;;4933404;28;45311;-68
2024/03/05 11:11:09;;;;;;;;;0.25;0.00;;;;;;;;4926490;28;45562;-68
2024/03/05 11:13:35;;;;;;;;;0.00;0.00;;;;;;;;4919758;28;45622;-69
2024/03/05 11:16:03;;;;;;;;;0.25;0.00;;;;;;;;4921270;28;45445;-68
2024/03/05 11:18:31;;;;;;;;;0.00;0.00;;;;;;;;4926800;28;45461;-69
2024/03/05 11:20:56;;;;;;;;;0.00;0.00;;;;;;;;4911550;28;46479;-68
2024/03/05 11:23:25;;;;;;;;;0.00;0.00;;;;;;;;4915742;28;45663;-69
2024/03/05 11:25:54;;;;;;;;;2.50;0.00;;;;;;;;4926212;28;45629;-69
2024/03/05 11:28:20;;;;;;;;;0.00;0.00;;;;;;;;4918867;28;46158;-69
2024/03/05 11:30:45;;;;;;;;;0.00;0.00;;;;;;;;4926179;28;45417;-68
2024/03/05 11:33:11;;;;;;;;;0.00;0.00;;;;;;;;4924335;28;45413;-69
2024/03/05 11:35:38;;;;;;;;;1.00;0.00;;;;;;;;4921998;28;45436;-69
2024/03/05 11:38:03;;;;;;;;;0.75;0.00;;;;;;;;4924504;28;45483;-68
2024/03/05 11:40:29;;;;;;;;;2.75;0.00;;;;;;;;4923758;28;46054;-66
2024/03/05 11:42:54;;;;;;;;;0.00;0.00;;;;;;;;4919064;28;45752;-66
2024/03/05 11:45:38;;;;;;;;;0.00;0.00;;;;;;;;4933608;28;45500;-66
2024/03/05 11:48:04;;;;;;;;;1.00;1.00;;;;;;;;4918958;28;45763;-66
2024/03/05 11:50:31;;;;;;;;;1.00;1.00;;;;;;;;4934049;28;45601;-66
2024/03/05 11:52:57;;;;;;;;;1.00;1.00;;;;;;;;4921456;28;45463;-66
2024/03/05 11:55:25;;;;;;;;;1.25;1.00;;;;;;;;4936317;28;45465;-66
2024/03/05 11:57:57;;;;;;;;;0.00;0.00;;;;;;;;4927749;28;45446;-66
2024/03/05 12:00:22;;;;;;;;;0.75;0.75;;;;;;;;4923916;28;45515;-66
2024/03/05 12:02:52;;;;;;;;;1.00;1.00;;;;;;;;4919556;28;45824;-66
2024/03/05 12:05:17;;;;;;;;;0.75;0.00;;;;;;;;4916200;28;45616;-66
2024/03/05 12:07:55;;;;;;;;;4.75;1.00;;;;;;;;4919287;28;46983;-67
2024/03/05 12:10:20;;;;;;;;;1.00;1.00;;;;;;;;4901243;28;45743;-66
2024/03/05 12:12:50;;;;;;;;;0.00;0.00;;;;;;;;4921088;28;45502;-66
2024/03/05 12:15:18;;;;;;;;;1.50;0.50;;;;;;;;4920734;28;46461;-66
2024/03/05 12:17:44;;;;;;;;;0.00;0.00;;;;;;;;4920742;28;45612;-66
2024/03/05 12:20:13;;;;;;;;;1.00;0.00;;;;;;;;4921966;28;45601;-66
2024/03/05 12:22:40;;;;;;;;;5.25;0.00;;;;;;;;4920693;28;45462;-66
2024/03/05 12:25:07;;;;;;;;;1.50;1.00;;;;;;;;4918651;28;45819;-66
2024/03/05 12:27:34;;;;;;;;;1.75;0.00;;;;;;;;4919737;28;45486;-66
2024/03/05 12:30:01;;;;;;;;;1.25;1.00;;;;;;;;4921715;28;45478;-66
2024/03/05 12:32:26;;;;;;;;;0.50;0.00;;;;;;;;4924108;28;45382;-66
2024/03/05 12:34:52;;;;;;;;;0.00;0.00;;;;;;;;4918311;28;45669;-66
2024/03/05 12:37:19;;;;;;;;;0.00;0.00;;;;;;;;4918807;28;45397;-66
2024/03/05 12:39:44;;;;;;;;;0.00;0.00;;;;;;;;4921220;28;47149;-66
2024/03/05 12:42:11;;;;;;;;;0.00;0.00;;;;;;;;4920718;28;45410;-66
2024/03/05 12:44:36;;;;;;;;;2.00;0.00;;;;;;;;4921507;28;45510;-66
2024/03/05 12:47:18;;;;;;;;;0.00;0.00;;;;;;;;4921388;28;45699;-66
2024/03/05 12:49:44;;;;;;;;;0.00;0.00;;;;;;;;4920784;28;46138;-66
2024/03/05 12:52:10;;;;;;;;;0.00;0.00;;;;;;;;4920810;28;45586;-66
2024/03/05 12:54:35;;;;;;;;;0.00;0.00;;;;;;;;4916885;28;45387;-66
2024/03/05 12:57:01;;;;;;;;;0.00;0.00;;;;;;;;4921079;28;45392;-66
2024/03/05 12:59:26;;;;;;;;;0.00;0.00;;;;;;;;4919123;28;46643;-66
2024/03/05 13:01:53;;;;;;;;;3.00;0.00;;;;;;;;4923271;28;45514;-66
2024/03/05 13:04:20;;;;;;;;;2.00;0.00;;;;;;;;4922749;28;45506;-66
2024/03/05 13:06:45;;;;;;;;;0.00;0.00;;;;;;;;4904762;28;45608;-66
2024/03/05 13:09:16;;;;;;;;;0.00;0.00;;;;;;;;4926087;28;45724;-67
2024/03/05 13:11:42;;;;;;;;;0.00;0.00;;;;;;;;4920623;28;45486;-65
2024/03/05 13:14:12;;;;;;;;;3.33;0.00;;;;;;;;4922469;28;45372;-66
2024/03/05 13:16:38;;;;;;;;;0.50;0.00;;;;;;;;4917471;28;45747;-65
2024/03/05 13:19:03;;;;;;;;;0.00;0.00;;;;;;;;4927400;28;46151;-65
2024/03/05 13:21:28;;;;;;;;;0.00;0.00;;;;;;;;4923679;28;45383;-65
2024/03/05 13:23:53;;;;;;;;;0.00;0.00;;;;;;;;4919880;28;45750;-65
2024/03/05 13:26:19;;;;;;;;;1.00;1.00;;;;;;;;4933444;28;45623;-65
2024/03/05 13:28:44;;;;;;;;;2.00;1.00;;;;;;;;4917205;28;46284;-65
2024/03/05 13:31:09;;;;;;;;;0.00;0.00;;;;;;;;4926566;28;45377;-66
2024/03/05 13:33:34;;;;;;;;;0.00;0.00;;;;;;;;4919347;28;45550;-66
2024/03/05 13:35:59;;;;;;;;;1.00;0.00;;;;;;;;4927336;28;45607;-64
2024/03/05 13:38:25;;;;;;;;;0.00;0.00;;;;;;;;4919685;28;46443;-67
2024/03/05 13:40:53;;;;;;;;;0.00;0.00;;;;;;;;4899896;28;45449;-67
2024/03/05 13:43:22;;;;;;;;;2.00;0.00;;;;;;;;4915378;28;46148;-67
2024/03/05 13:45:48;;;;;;;;;0.00;0.00;;;;;;;;4914762;28;45526;-66
2024/03/05 13:48:13;;;;;;;;;0.75;0.00;;;;;;;;4916177;28;45513;-67
2024/03/05 13:50:38;;;;;;;;;2.00;2.00;;;;;;;;4916621;28;45453;-66
2024/03/05 13:53:04;;;;;;;;;2.00;0.75;;;;;;;;4916960;28;45915;-67
2024/03/05 13:55:29;;;;;;;;;0.00;0.00;;;;;;;;4916178;28;45949;-66
2024/03/05 13:57:54;;;;;;;;;0.00;0.00;;;;;;;;4913348;28;46039;-67
2024/03/05 14:00:20;;;;;;;;;0.00;0.00;;;;;;;;4915196;28;45634;-67
2024/03/05 14:02:45;;;;;;;;;0.50;0.00;;;;;;;;4923584;28;45730;-67
2024/03/05 14:05:11;;;;;;;;;0.00;0.00;;;;;;;;4928748;28;45516;-66
2024/03/05 14:07:36;;;;;;;;;1.00;1.00;;;;;;;;4915917;28;46168;-67
2024/03/05 14:10:01;;;;;;;;;1.00;1.00;;;;;;;;4915574;28;45577;-66
2024/03/05 14:12:28;;;;;;;;;0.00;0.00;;;;;;;;4927794;28;45809;-67
2024/03/05 14:14:53;;;;;;;;;1.00;0.00;;;;;;;;4926015;28;45484;-67
2024/03/05 14:17:18;;;;;;;;;0.00;0.00;;;;;;;;4918408;28;45510;-66
2024/03/05 14:19:44;;;;;;;;;0.00;0.00;;;;;;;;4921339;28;45535;-67
2024/03/05 14:22:11;;;;;;;;;0.00;0.00;;;;;;;;4925503;28;45916;-67
2024/03/05 14:24:37;;;;;;;;;0.00;0.00;;;;;;;;4926544;28;45549;-66
2024/03/05 14:27:03;;;;;;;;;0.00;0.00;;;;;;;;4937347;28;45482;-66
2024/03/05 14:29:28;;;;;;;;;1.50;1.00;;;;;;;;4917331;28;45732;-66
2024/03/05 14:31:53;;;;;;;;;0.67;0.67;;;;;;;;4918436;28;45461;-66
2024/03/05 14:34:18;;;;;;;;;0.00;0.00;;;;;;;;4919133;28;45673;-66
2024/03/05 14:36:44;;;;;;;;;0.00;0.00;;;;;;;;4925121;28;46748;-66
2024/03/05 14:39:09;;;;;;;;;1.00;0.00;;;;;;;;4933543;28;45680;-66
2024/03/05 14:41:35;;;;;;;;;0.33;0.00;;;;;;;;4924191;28;45843;-66
2024/03/05 14:44:04;;;;;;;;;0.00;0.00;;;;;;;;4918891;28;45463;-66